Opal, Virginia
Current Conditions -  °F | °C
As of 1:55 AM on Monday 22 Dec 2014 (Local Time) from KHWY Reporting Station
Overcast Overcast  
Wind Chill: 28°   Ceiling: 4500
Heat Index: 28°   Visibility: 7mi
Dew Point: 28°   Wind: 0mph
Humidity: 100%   Direction: NA
Pressure: 30.31"   Gusts: NA
Location:  38.6876°N, 77.819°W
Report Text: KHWY 220655Z AUTO 00000KT 7SM OVC045 M02/M02 A3031 RMK AO2 T10251025
Loading
Personal Weather Stations






























Interactive Weather Map New forecast layout! Learn more

10-Day Weather Forecast

Advertisements
Track Severe Weather on mobile